Time;durP1;ratioP1;P1;durP2;ratioP2;P2;SDS_P1;SDS_P2;PMS_P1;PMS_P2;Temp;Humidity;BMP_temperature;BMP_pressure;BME280_temperature;BME280_humidity;BME280_pressure;Samples;Min_cycle;Max_cycle;Signal;HPM_P1;HPM_P2
2021/08/06 00:02:11;;;;;;;1.58;1.38;;;16.50;76.50;;;;;;4999154;28;96484;-54
2021/08/06 00:04:46;;;;;;;1.95;1.45;;;16.50;76.50;;;;;;5000389;28;95837;-48
2021/08/06 00:07:24;;;;;;;3.08;1.17;;;16.60;76.60;;;;;;4983034;28;94957;-45
2021/08/06 00:09:57;;;;;;;1.90;1.40;;;16.60;76.70;;;;;;5000937;28;95237;-46
2021/08/06 00:12:28;;;;;;;2.40;1.70;;;16.70;76.80;;;;;;4999763;28;96419;-51
2021/08/06 00:14:59;;;;;;;1.05;1.00;;;16.70;77.10;;;;;;4999920;28;95450;-48
2021/08/06 00:17:32;;;;;;;1.85;1.58;;;16.70;77.20;;;;;;4978099;28;95341;-50
2021/08/06 00:20:07;;;;;;;1.20;1.10;;;16.80;77.10;;;;;;4995101;28;95270;-48
2021/08/06 00:22:39;;;;;;;1.27;1.17;;;16.80;77.10;;;;;;4999455;28;96548;-55
2021/08/06 00:25:11;;;;;;;1.40;1.23;;;16.90;77.20;;;;;;4982176;28;95772;-49
2021/08/06 00:27:44;;;;;;;1.25;1.10;;;16.90;77.40;;;;;;4999311;28;95028;-47
2021/08/06 00:30:17;;;;;;;1.27;1.17;;;16.90;77.30;;;;;;4999741;28;95199;-52
2021/08/06 00:32:50;;;;;;;1.73;1.58;;;16.90;77.20;;;;;;4997937;28;96359;-49
2021/08/06 00:35:30;;;;;;;1.48;1.38;;;17.00;77.20;;;;;;4998965;28;95508;-48
2021/08/06 00:38:02;;;;;;;1.20;1.10;;;17.00;77.10;;;;;;4999432;28;94981;-48
2021/08/06 00:40:36;;;;;;;0.90;0.90;;;17.00;77.10;;;;;;4998126;28;95573;-50
2021/08/06 00:43:12;;;;;;;1.85;1.05;;;17.10;77.20;;;;;;4999221;28;96703;-53
2021/08/06 00:45:47;;;;;;;1.13;1.02;;;17.10;77.10;;;;;;4997846;28;95565;-57
2021/08/06 00:48:27;;;;;;;1.27;1.17;;;17.10;77.20;;;;;;4999419;28;94955;-53
2021/08/06 00:51:01;;;;;;;1.73;1.33;;;17.20;77.10;;;;;;4982761;28;95327;-54
2021/08/06 00:53:38;;;;;;;2.20;1.40;;;17.20;77.10;;;;;;4981295;28;96788;-45
2021/08/06 00:56:12;;;;;;;1.10;1.00;;;17.20;77.10;;;;;;4999737;28;95889;-45
2021/08/06 00:58:45;;;;;;;1.45;1.30;;;17.20;77.00;;;;;;4999108;28;95029;-47
2021/08/06 01:01:28;;;;;;;1.38;1.25;;;17.20;77.10;;;;;;4998492;28;95430;-47
2021/08/06 01:04:07;;;;;;;1.08;1.02;;;17.30;77.00;;;;;;4998789;28;96994;-48
2021/08/06 01:07:08;;;;;;;2.13;1.27;;;17.30;77.00;;;;;;4998488;28;95976;-46
2021/08/06 01:09:52;;;;;;;1.35;1.17;;;17.40;76.00;;;;;;4997349;28;94990;-51
2021/08/06 01:12:50;;;;;;;1.27;1.27;;;17.30;75.10;;;;;;4998588;28;95338;-56
2021/08/06 01:15:23;;;;;;;2.30;1.80;;;17.20;74.90;;;;;;4995989;28;96537;-49
2021/08/06 01:18:03;;;;;;;1.40;1.30;;;17.30;74.90;;;;;;4976008;28;95986;-56
2021/08/06 01:20:55;;;;;;;1.73;1.50;;;17.30;74.80;;;;;;4994456;28;95371;-59
2021/08/06 01:23:35;;;;;;;1.50;1.40;;;17.30;74.60;;;;;;4998805;28;95264;-55
2021/08/06 01:26:25;;;;;;;1.90;1.60;;;17.40;74.60;;;;;;4998480;28;95846;-48
2021/08/06 01:29:02;;;;;;;1.88;1.48;;;17.40;74.40;;;;;;4981709;28;95767;-52
2021/08/06 01:31:44;;;;;;;1.42;1.17;;;17.40;75.10;;;;;;4996558;28;94983;-65
2021/08/06 01:34:23;;;;;;;1.95;1.50;;;17.50;74.40;;;;;;4998714;28;95357;-65
2021/08/06 01:36:54;;;;;;;1.25;1.10;;;17.60;74.30;;;;;;4998786;28;96029;-66
2021/08/06 01:39:46;;;;;;;1.48;1.38;;;17.60;74.20;;;;;;4997093;28;95287;-59
2021/08/06 01:42:32;;;;;;;2.28;1.42;;;17.70;74.00;;;;;;4980784;28;95418;-58
2021/08/06 01:45:12;;;;;;;1.63;1.30;;;17.70;73.80;;;;;;4998966;28;95185;-52
2021/08/06 01:47:54;;;;;;;1.77;1.40;;;17.80;73.60;;;;;;4997691;28;95401;-60
2021/08/06 01:50:40;;;;;;;2.53;1.50;;;17.80;73.60;;;;;;4999117;28;95094;-56
2021/08/06 01:53:18;;;;;;;1.80;1.35;;;17.80;73.50;;;;;;4996709;28;95087;-48
2021/08/06 01:56:02;;;;;;;4.13;1.58;;;17.80;73.30;;;;;;4999091;28;95288;-56
2021/08/06 01:58:52;;;;;;;2.15;1.38;;;17.80;73.30;;;;;;4998146;28;96074;-51
2021/08/06 02:01:36;;;;;;;2.55;1.38;;;17.80;73.40;;;;;;4996489;28;95705;-55
2021/08/06 02:04:15;;;;;;;2.20;1.83;;;17.80;73.30;;;;;;4998680;28;94905;-56
2021/08/06 02:07:02;;;;;;;2.67;1.58;;;17.70;73.30;;;;;;4997898;28;95338;-53
2021/08/06 02:09:39;;;;;;;3.13;1.90;;;17.70;73.50;;;;;;4997406;28;96396;-58
2021/08/06 02:12:16;;;;;;;2.83;2.05;;;17.70;73.70;;;;;;4996624;28;95895;-56
2021/08/06 02:15:05;;;;;;;1.90;1.52;;;17.60;73.60;;;;;;4998143;28;94870;-56
2021/08/06 02:17:45;;;;;;;1.80;1.38;;;17.60;73.70;;;;;;4975354;28;95589;-56
2021/08/06 02:20:41;;;;;;;1.80;1.60;;;17.60;73.80;;;;;;4979861;28;96139;-56
2021/08/06 02:23:20;;;;;;;2.45;1.50;;;17.50;73.70;;;;;;4997571;28;95946;-56
2021/08/06 02:25:58;;;;;;;1.83;1.63;;;17.40;73.90;;;;;;4980738;28;95171;-55
2021/08/06 02:28:37;;;;;;;1.88;1.40;;;17.40;74.00;;;;;;4980832;28;95372;-54
2021/08/06 02:31:12;;;;;;;3.25;1.67;;;17.40;74.10;;;;;;4977338;28;96449;-56
2021/08/06 02:33:45;;;;;;;1.52;1.42;;;17.40;74.00;;;;;;4996947;28;95811;-52
2021/08/06 02:36:18;;;;;;;3.88;1.95;;;17.30;73.90;;;;;;4995922;28;95083;-56
2021/08/06 02:38:49;;;;;;;4.20;1.52;;;17.40;73.70;;;;;;4979722;28;95339;-54
2021/08/06 02:41:20;;;;;;;;;;;17.40;73.90;;;;;;4996156;28;96867;-52
2021/08/06 02:43:51;;;;;;;3.53;1.88;;;17.40;74.00;;;;;;4998619;28;95829;-51
2021/08/06 02:46:25;;;;;;;1.88;1.52;;;17.30;74.10;;;;;;4986434;28;95222;-62
2021/08/06 02:48:59;;;;;;;2.65;1.65;;;17.40;74.20;;;;;;4979068;28;95185;-56
2021/08/06 02:51:30;;;;;;;2.88;1.83;;;17.50;74.20;;;;;;4958882;28;96652;-56
2021/08/06 02:54:02;;;;;;;2.15;1.40;;;17.60;74.20;;;;;;4977743;28;95536;-53
2021/08/06 02:56:36;;;;;;;2.00;1.67;;;17.60;74.10;;;;;;4978577;28;94975;-62
2021/08/06 02:59:09;;;;;;;2.38;1.48;;;17.70;74.10;;;;;;4977664;28;95205;-48
2021/08/06 03:01:41;;;;;;;2.00;1.42;;;17.80;74.10;;;;;;4974837;28;98028;-61
2021/08/06 03:04:14;;;;;;;1.98;1.38;;;17.80;74.10;;;;;;4959765;28;95829;-56
2021/08/06 03:06:49;;;;;;;2.05;1.42;;;17.90;74.20;;;;;;4976029;28;94967;-57
2021/08/06 03:09:24;;;;;;;1.23;1.08;;;17.90;74.30;;;;;;4977835;28;95102;-56
2021/08/06 03:11:59;;;;;;;1.45;1.20;;;17.90;74.10;;;;;;4975594;28;98261;-54
2021/08/06 03:14:36;;;;;;;1.73;1.40;;;18.00;74.10;;;;;;4976996;28;95822;-62
2021/08/06 03:17:07;;;;;;;3.38;2.70;;;18.00;74.10;;;;;;4972676;28;95177;-57
2021/08/06 03:19:44;;;;;;;3.50;2.75;;;18.00;72.70;;;;;;4970902;28;96646;-53
2021/08/06 03:22:17;;;;;;;4.18;2.55;;;17.80;72.80;;;;;;4975529;28;98308;-55
2021/08/06 03:24:51;;;;;;;4.53;2.40;;;17.80;72.90;;;;;;4975147;28;95503;-60
2021/08/06 03:27:26;;;;;;;3.45;2.05;;;17.70;73.20;;;;;;4961862;28;94944;-59
2021/08/06 03:29:59;;;;;;;3.15;2.85;;;17.60;73.30;;;;;;4980828;28;95260;-59
2021/08/06 03:32:33;;;;;;;3.45;2.88;;;17.60;73.40;;;;;;4978425;28;96521;-59
2021/08/06 03:35:05;;;;;;;3.05;2.53;;;17.60;73.40;;;;;;4980368;28;95807;-59
2021/08/06 03:37:40;;;;;;;2.97;2.35;;;17.60;73.50;;;;;;4978890;28;94974;-59
2021/08/06 03:40:14;;;;;;;2.90;2.60;;;17.60;73.50;;;;;;4979684;28;95210;-59
2021/08/06 03:42:45;;;;;;;5.97;3.58;;;17.60;73.50;;;;;;4979629;28;96659;-59
2021/08/06 03:45:17;;;;;;;7.82;3.90;;;17.60;73.60;;;;;;4980449;28;95790;-61
2021/08/06 03:47:49;;;;;;;10.10;4.95;;;17.60;73.70;;;;;;4977946;28;95517;-60
2021/08/06 03:50:21;;;;;;;7.30;4.93;;;17.60;73.80;;;;;;4981613;28;95201;-60
2021/08/06 03:52:54;;;;;;;10.18;5.30;;;17.60;73.80;;;;;;4979191;28;96169;-60
2021/08/06 03:55:27;;;;;;;11.07;5.50;;;17.60;73.80;;;;;;4983954;28;95075;-60
2021/08/06 03:58:02;;;;;;;12.50;5.65;;;17.60;73.80;;;;;;5000616;28;94989;-60
2021/08/06 04:00:41;;;;;;;7.85;5.40;;;17.70;73.90;;;;;;4965343;28;95361;-60
2021/08/06 04:03:15;;;;;;;11.02;5.10;;;17.70;73.90;;;;;;4981992;28;96459;-60
2021/08/06 04:05:50;;;;;;;16.05;5.43;;;17.60;73.90;;;;;;5000277;28;95643;-60
2021/08/06 04:08:24;;;;;;;13.05;6.47;;;17.60;74.00;;;;;;5000293;28;95048;-58
2021/08/06 04:10:59;;;;;;;9.35;5.80;;;17.60;74.00;;;;;;4983133;28;95269;-60
2021/08/06 04:13:31;;;;;;;13.25;6.10;;;17.70;74.10;;;;;;4981068;28;96487;-62
2021/08/06 04:16:03;;;;;;;11.88;6.00;;;17.70;74.10;;;;;;4976288;28;94970;-55
2021/08/06 04:18:36;;;;;;;13.85;5.93;;;17.70;74.10;;;;;;4957913;28;95183;-57
2021/08/06 04:21:10;;;;;;;7.80;5.20;;;17.80;74.10;;;;;;4977003;28;95369;-62
2021/08/06 04:23:42;;;;;;;11.45;5.72;;;17.80;74.00;;;;;;4979370;28;96570;-46
2021/08/06 04:26:14;;;;;;;10.65;5.80;;;17.90;73.90;;;;;;4979710;28;96623;-60
2021/08/06 04:28:46;;;;;;;9.52;5.25;;;17.90;73.80;;;;;;4979804;28;94971;-65
2021/08/06 04:31:19;;;;;;;10.10;5.03;;;18.00;73.80;;;;;;4985428;28;95151;-64
2021/08/06 04:33:52;;;;;;;10.30;5.03;;;18.00;74.10;;;;;;4982670;28;95803;-60
2021/08/06 04:36:25;;;;;;;8.45;4.80;;;18.00;73.90;;;;;;4981130;28;95785;-60
2021/08/06 04:38:58;;;;;;;9.98;4.70;;;18.10;74.00;;;;;;4997925;28;95073;-54
2021/08/06 04:41:30;;;;;;;13.60;5.03;;;18.10;73.80;;;;;;4999652;28;95099;-64
2021/08/06 04:44:01;;;;;;;6.15;3.80;;;18.10;73.70;;;;;;4998792;28;96620;-63
2021/08/06 04:46:34;;;;;;;7.93;4.32;;;18.10;73.70;;;;;;4997968;28;95851;-63
2021/08/06 04:49:10;;;;;;;9.82;4.40;;;18.20;73.60;;;;;;4967804;28;95105;-58
2021/08/06 04:51:44;;;;;;;7.25;3.88;;;18.10;73.50;;;;;;5000370;28;95280;-69
2021/08/06 04:54:16;;;;;;;7.65;3.65;;;18.20;73.40;;;;;;4996824;28;96342;-68
2021/08/06 04:56:48;;;;;;;7.63;3.63;;;18.20;73.40;;;;;;5000125;28;95495;-60
2021/08/06 04:59:20;;;;;;;5.13;3.58;;;18.20;73.30;;;;;;4981506;28;95040;-63
2021/08/06 05:01:51;;;;;;;7.22;3.38;;;18.20;73.30;;;;;;4981870;28;95435;-51
2021/08/06 05:04:29;;;;;;;5.68;3.60;;;18.30;73.30;;;;;;4999337;28;96360;-64
2021/08/06 05:07:04;;;;;;;6.78;3.60;;;18.30;73.10;;;;;;4998611;28;95752;-62
2021/08/06 05:09:38;;;;;;;6.03;2.83;;;18.30;73.10;;;;;;4981326;28;94953;-63
2021/08/06 05:12:11;;;;;;;4.30;2.78;;;18.30;73.00;;;;;;4999353;28;95270;-63
2021/08/06 05:14:41;;;;;;;;;;;18.30;72.90;;;;;;4999197;28;96390;-61
2021/08/06 05:17:13;;;;;;;4.72;2.97;;;18.40;72.90;;;;;;4996419;28;95747;-58
2021/08/06 05:19:46;;;;;;;7.53;3.20;;;18.40;72.90;;;;;;4975906;28;95426;-57
2021/08/06 05:22:19;;;;;;;4.75;3.45;;;18.40;72.90;;;;;;4999108;28;95204;-53
2021/08/06 05:24:52;;;;;;;2.88;2.58;;;18.40;72.90;;;;;;4980525;28;96089;-64
2021/08/06 05:27:26;;;;;;;3.22;2.92;;;18.40;72.90;;;;;;4998449;28;95887;-58
2021/08/06 05:29:58;;;;;;;7.32;3.40;;;18.40;72.80;;;;;;4998784;28;94935;-62
2021/08/06 05:32:31;;;;;;;3.75;2.72;;;18.40;72.90;;;;;;4997662;28;95537;-64
2021/08/06 05:35:03;;;;;;;4.57;2.88;;;18.40;72.90;;;;;;4999058;28;96374;-65
2021/08/06 05:37:38;;;;;;;5.13;3.15;;;18.40;72.90;;;;;;4998431;28;96310;-66
2021/08/06 05:40:10;;;;;;;3.50;2.75;;;18.40;72.90;;;;;;4997305;28;95348;-57
2021/08/06 05:42:42;;;;;;;3.50;2.80;;;18.30;72.80;;;;;;4998961;28;95102;-60
2021/08/06 05:45:14;;;;;;;4.97;3.00;;;18.40;72.90;;;;;;4996732;28;96401;-60
2021/08/06 05:47:52;;;;;;;6.75;3.40;;;18.40;73.00;;;;;;4998121;28;102647;-53
2021/08/06 05:50:39;;;;;;;3.40;2.85;;;18.40;73.00;;;;;;4998765;28;94970;-60
2021/08/06 05:53:22;;;;;;;7.13;3.13;;;18.40;72.90;;;;;;4998949;28;95168;-62
2021/08/06 05:56:03;;;;;;;5.00;3.60;;;18.40;73.10;;;;;;4982925;28;96343;-61
2021/08/06 05:58:45;;;;;;;3.53;3.05;;;18.40;73.10;;;;;;4997705;28;96011;-62
2021/08/06 06:01:18;;;;;;;4.20;2.97;;;18.40;73.10;;;;;;4979121;28;94940;-63
2021/08/06 06:04:09;;;;;;;4.32;3.38;;;18.30;73.00;;;;;;4984294;28;95413;-62
2021/08/06 06:07:17;;;;;;;5.03;3.25;;;18.30;73.60;;;;;;4984399;28;96198;-60
2021/08/06 06:09:49;;;;;;;3.65;2.88;;;18.30;73.10;;;;;;4997556;28;95871;-57
2021/08/06 06:12:22;;;;;;;5.82;3.53;;;18.30;73.10;;;;;;4998148;28;94991;-57
2021/08/06 06:14:55;;;;;;;3.25;2.70;;;18.20;73.10;;;;;;4998352;28;95084;-58
2021/08/06 06:17:26;;;;;;;4.53;3.88;;;18.20;73.10;;;;;;4993955;28;96582;-57
2021/08/06 06:20:00;;;;;;;5.50;3.30;;;18.20;73.20;;;;;;4993562;28;95876;-54
2021/08/06 06:22:33;;;;;;;4.03;3.13;;;18.20;73.20;;;;;;4997611;28;95005;-56
2021/08/06 06:25:07;;;;;;;3.70;3.15;;;18.20;73.20;;;;;;4979610;28;95381;-56
2021/08/06 06:27:55;;;;;;;5.20;3.67;;;18.10;73.20;;;;;;4979276;28;96591;-56
2021/08/06 06:30:31;;;;;;;4.65;3.42;;;18.10;73.20;;;;;;4977335;28;95499;-56
2021/08/06 06:33:04;;;;;;;5.22;3.28;;;18.10;73.20;;;;;;4997619;28;95040;-57
2021/08/06 06:35:39;;;;;;;2.97;2.65;;;18.10;73.30;;;;;;4997782;28;95074;-56
2021/08/06 06:38:11;;;;;;;3.60;3.05;;;18.10;73.30;;;;;;4997560;28;96438;-56
2021/08/06 06:40:43;;;;;;;4.00;3.05;;;18.10;73.30;;;;;;4979134;28;95922;-56
2021/08/06 06:43:27;;;;;;;5.68;4.07;;;18.10;73.30;;;;;;4997445;28;94812;-56
2021/08/06 06:46:03;;;;;;;7.53;4.45;;;18.10;73.30;;;;;;4996747;28;95282;-56
2021/08/06 06:48:39;;;;;;;6.30;4.65;;;18.10;73.40;;;;;;4998206;28;96043;-57
2021/08/06 06:51:14;;;;;;;7.70;6.30;;;18.10;73.40;;;;;;4980368;28;95890;-57
2021/08/06 06:53:47;;;;;;;13.32;8.45;;;18.10;73.40;;;;;;4997570;28;94938;-57
2021/08/06 06:56:20;;;;;;;12.10;8.25;;;18.00;73.30;;;;;;4997827;28;95321;-57
2021/08/06 06:58:53;;;;;;;16.02;10.40;;;18.00;73.40;;;;;;4997433;28;96376;-57
2021/08/06 07:01:28;;;;;;;16.45;11.52;;;18.00;73.50;;;;;;4977774;28;95868;-56
2021/08/06 07:04:04;;;;;;;16.10;11.07;;;18.00;73.50;;;;;;5000674;28;94896;-58
2021/08/06 07:06:36;;;;;;;19.10;12.02;;;18.00;73.50;;;;;;4966544;28;95415;-51
2021/08/06 07:09:09;;;;;;;18.05;11.68;;;18.00;73.60;;;;;;4999843;28;96572;-58
2021/08/06 07:11:43;;;;;;;19.08;12.85;;;18.00;73.80;;;;;;4982865;28;95661;-56
2021/08/06 07:14:15;;;;;;;21.00;13.25;;;18.00;73.90;;;;;;5000241;28;95031;-57
2021/08/06 07:16:46;;;;;;;18.70;13.38;;;18.00;73.90;;;;;;4999051;28;95144;-49
2021/08/06 07:19:20;;;;;;;18.65;12.13;;;18.10;73.90;;;;;;4990100;28;95358;-56
2021/08/06 07:21:52;;;;;;;18.30;12.48;;;18.10;74.00;;;;;;4998815;28;95213;-56
2021/08/06 07:24:24;;;;;;;23.00;14.55;;;18.10;73.70;;;;;;4998178;28;94969;-55
2021/08/06 07:27:00;;;;;;;20.40;15.25;;;18.10;73.60;;;;;;4999910;28;95157;-56
2021/08/06 07:29:34;;;;;;;18.20;13.57;;;18.10;73.50;;;;;;4999656;28;96494;-56
2021/08/06 07:32:04;;;;;;;;;;;18.10;73.50;;;;;;4997889;28;95878;-54
2021/08/06 07:34:36;;;;;;;21.77;14.02;;;18.10;73.50;;;;;;5000984;28;94990;-56
2021/08/06 07:37:10;;;;;;;23.42;15.40;;;18.00;73.50;;;;;;5000162;28;95322;-56
2021/08/06 07:39:42;;;;;;;23.73;16.77;;;18.00;73.50;;;;;;4981334;28;96624;-56
2021/08/06 07:42:15;;;;;;;24.50;15.48;;;18.00;73.50;;;;;;4980933;28;95009;-57
2021/08/06 07:44:51;;;;;;;28.00;17.67;;;18.00;73.40;;;;;;4999322;28;94966;-56
2021/08/06 07:47:25;;;;;;;25.35;16.83;;;18.00;73.30;;;;;;4998191;28;95367;-59
2021/08/06 07:49:57;;;;;;;28.13;18.73;;;18.00;73.30;;;;;;5000141;28;96682;-54
2021/08/06 07:52:32;;;;;;;32.05;20.58;;;18.00;73.30;;;;;;4999474;28;95794;-57
2021/08/06 07:55:07;;;;;;;34.80;23.25;;;18.00;73.60;;;;;;4980302;28;94945;-57
2021/08/06 07:57:41;;;;;;;36.65;24.50;;;18.00;73.40;;;;;;4980376;28;95178;-58
2021/08/06 08:00:16;;;;;;;36.50;28.45;;;18.00;73.40;;;;;;4994441;28;95956;-57
2021/08/06 08:02:50;;;;;;;43.40;28.98;;;18.00;73.30;;;;;;4978702;28;95836;-58
2021/08/06 08:05:33;;;;;;;44.85;29.58;;;18.00;73.30;;;;;;4979834;28;94920;-56
2021/08/06 08:08:12;;;;;;;41.67;29.35;;;18.00;73.30;;;;;;4979036;28;95334;-58
2021/08/06 08:10:44;;;;;;;42.63;28.63;;;18.00;73.30;;;;;;4978962;28;95508;-58
2021/08/06 08:13:22;;;;;;;42.85;29.77;;;18.00;73.30;;;;;;4978434;28;95494;-58
2021/08/06 08:16:03;;;;;;;43.35;29.60;;;17.90;73.20;;;;;;4977377;28;95408;-58
2021/08/06 08:18:36;;;;;;;45.70;32.25;;;18.00;73.30;;;;;;4976156;28;95256;-58
2021/08/06 08:21:08;;;;;;;49.15;34.67;;;17.90;73.30;;;;;;4976183;28;96428;-57
2021/08/06 08:23:44;;;;;;;55.75;36.30;;;17.90;73.30;;;;;;4978935;28;95801;-57
2021/08/06 08:26:15;;;;;;;47.88;33.83;;;17.90;73.30;;;;;;4979254;28;94942;-57
2021/08/06 08:28:48;;;;;;;53.90;36.25;;;17.90;73.40;;;;;;4979445;28;95411;-56
2021/08/06 08:31:20;;;;;;;55.00;36.97;;;17.80;73.30;;;;;;4997055;28;96519;-58
2021/08/06 08:33:53;;;;;;;52.10;36.08;;;17.80;73.40;;;;;;4996803;28;97474;-58
2021/08/06 08:36:26;;;;;;;52.58;36.83;;;17.80;73.30;;;;;;4998905;28;95043;-57
2021/08/06 08:39:05;;;;;;;51.65;37.28;;;17.80;73.20;;;;;;4981772;28;95118;-58
2021/08/06 08:41:38;;;;;;;50.28;35.47;;;17.80;73.30;;;;;;4998513;28;96443;-58
2021/08/06 08:44:10;;;;;;;;;;;17.80;73.30;;;;;;4998604;28;95821;-58
2021/08/06 08:46:51;;;;;;;50.53;33.95;;;17.80;73.40;;;;;;4999983;28;95095;-58
2021/08/06 08:49:26;;;;;;;48.75;33.83;;;17.70;73.40;;;;;;4999827;28;95284;-58
2021/08/06 08:52:02;;;;;;;51.33;35.30;;;17.70;73.40;;;;;;4999515;28;96204;-59
2021/08/06 08:57:32;;;;;;;47.63;33.55;;;17.70;73.50;;;;;;4998992;28;95383;-58
2021/08/06 09:00:09;;;;;;;47.08;32.90;;;17.70;73.50;;;;;;4998045;28;95344;-57
2021/08/06 09:02:45;;;;;;;46.95;31.83;;;17.70;73.50;;;;;;4996496;28;96287;-58
2021/08/06 09:05:23;;;;;;;43.63;31.15;;;17.70;73.50;;;;;;4998772;28;95807;-56
2021/08/06 09:08:19;;;;;;;44.55;29.95;;;17.70;73.50;;;;;;4997286;28;94975;-58
2021/08/06 09:11:34;;;;;;;40.85;28.15;;;17.70;73.50;;;;;;4998430;28;95316;-57
2021/08/06 09:14:27;;;;;;;42.85;29.67;;;17.60;73.40;;;;;;4994913;28;95737;-58
2021/08/06 09:17:02;;;;;;;42.35;30.02;;;17.60;73.40;;;;;;4996011;28;95809;-58
2021/08/06 09:19:36;;;;;;;38.25;26.25;;;17.60;73.40;;;;;;4989165;28;95291;-58
2021/08/06 09:22:15;;;;;;;43.42;29.20;;;17.60;73.40;;;;;;4998377;28;95498;-58
2021/08/06 09:25:07;;;;;;;37.88;26.63;;;17.70;73.50;;;;;;4979090;28;96640;-57
2021/08/06 09:28:00;;;;;;;37.80;26.38;;;17.60;73.50;;;;;;4997668;28;95276;-57
2021/08/06 09:30:39;;;;;;;36.95;25.95;;;17.70;73.70;;;;;;4997100;28;94907;-57
2021/08/06 09:33:11;;;;;;;35.05;25.42;;;17.60;73.60;;;;;;4998162;28;95204;-58
2021/08/06 09:35:45;;;;;;;37.05;26.17;;;17.60;73.60;;;;;;4979409;28;95113;-57
2021/08/06 09:38:20;;;;;;;32.67;24.17;;;17.60;73.70;;;;;;4997717;28;95802;-56
2021/08/06 09:40:52;;;;;;;34.92;25.80;;;17.60;73.60;;;;;;4979772;28;95293;-57
2021/08/06 09:43:26;;;;;;;36.75;25.73;;;17.60;73.70;;;;;;4998155;28;95238;-57
2021/08/06 09:46:00;;;;;;;35.22;24.27;;;17.60;73.70;;;;;;4976720;28;96417;-57
2021/08/06 09:48:40;;;;;;;33.83;23.55;;;17.60;73.60;;;;;;4978725;28;95435;-56
2021/08/06 09:51:14;;;;;;;33.35;22.15;;;17.60;73.60;;;;;;4980547;28;95037;-56
2021/08/06 09:53:52;;;;;;;34.58;23.33;;;17.60;73.60;;;;;;4998318;28;95142;-55
2021/08/06 09:56:28;;;;;;;30.08;21.45;;;17.60;73.60;;;;;;4997415;28;96198;-56
2021/08/06 09:59:07;;;;;;;29.58;20.00;;;17.60;73.60;;;;;;4979086;28;95566;-56
2021/08/06 10:01:39;;;;;;;30.30;21.60;;;17.60;73.80;;;;;;4996305;28;95172;-55
2021/08/06 10:04:17;;;;;;;33.40;22.08;;;17.60;74.00;;;;;;4998599;28;95176;-54
2021/08/06 10:07:01;;;;;;;29.75;21.42;;;17.50;74.10;;;;;;4997753;28;96463;-56
2021/08/06 10:09:33;;;;;;;31.50;21.45;;;17.50;74.30;;;;;;4997203;28;95756;-55
2021/08/06 10:12:08;;;;;;;29.92;21.30;;;17.40;74.40;;;;;;4997662;28;94961;-56
2021/08/06 10:14:41;;;;;;;31.05;21.92;;;17.40;74.40;;;;;;4997586;28;95248;-56
2021/08/06 10:17:14;;;;;;;30.67;21.27;;;17.40;74.40;;;;;;4994194;28;96432;-56
2021/08/06 10:19:46;;;;;;;29.15;20.25;;;17.30;74.40;;;;;;4992541;28;95473;-50
2021/08/06 10:22:19;;;;;;;27.25;19.65;;;17.30;74.40;;;;;;4996047;28;94966;-51
2021/08/06 10:24:55;;;;;;;27.58;19.98;;;17.30;74.30;;;;;;4995811;28;95334;-53
2021/08/06 10:27:33;;;;;;;29.88;20.17;;;17.30;74.30;;;;;;4997185;28;96562;-54
2021/08/06 10:30:22;;;;;;;33.33;21.50;;;17.30;74.40;;;;;;4997085;28;95976;-50
2021/08/06 10:33:07;;;;;;;27.77;20.08;;;17.20;74.40;;;;;;4981677;28;95104;-52
2021/08/06 10:35:43;;;;;;;29.73;19.98;;;17.20;74.40;;;;;;4996053;28;95202;-53
2021/08/06 10:38:33;;;;;;;24.38;19.20;;;17.20;74.40;;;;;;4996989;28;96429;-51
2021/08/06 10:41:12;;;;;;;27.05;18.80;;;17.20;74.50;;;;;;4996859;28;95864;-53
2021/08/06 10:44:05;;;;;;;25.75;17.67;;;17.10;74.40;;;;;;4997063;28;94999;-51
2021/08/06 10:47:06;;;;;;;24.60;17.75;;;17.10;74.50;;;;;;4996984;28;95187;-54
2021/08/06 10:49:39;;;;;;;25.23;18.50;;;17.10;74.50;;;;;;4997834;28;96466;-54
2021/08/06 10:52:18;;;;;;;23.42;16.42;;;17.10;74.50;;;;;;4997301;28;95830;-51
2021/08/06 10:54:51;;;;;;;23.80;17.50;;;17.00;74.50;;;;;;4997512;28;94986;-49
2021/08/06 10:57:37;;;;;;;27.73;16.80;;;16.90;74.90;;;;;;4997764;28;95402;-51
2021/08/06 11:00:31;;;;;;;;;;;16.80;75.20;;;;;;4996758;28;96501;-52
2021/08/06 11:03:06;;;;;;;20.35;15.43;;;16.70;75.50;;;;;;4998402;28;102085;-53
2021/08/06 11:05:44;;;;;;;23.13;17.70;;;16.70;75.70;;;;;;4997406;28;94925;-50
2021/08/06 11:08:47;;;;;;;23.98;17.30;;;16.60;75.80;;;;;;4964833;28;95396;-51
2021/08/06 11:11:40;;;;;;;21.80;15.17;;;16.50;75.90;;;;;;4995819;28;96056;-55
2021/08/06 11:14:15;;;;;;;20.75;15.20;;;16.50;76.10;;;;;;4977982;28;95858;-52
2021/08/06 11:17:09;;;;;;;20.25;14.27;;;16.40;76.40;;;;;;4994576;28;95162;-54
2021/08/06 11:19:47;;;;;;;20.23;14.00;;;16.30;76.70;;;;;;4993003;28;95699;-54
2021/08/06 11:22:40;;;;;;;17.92;13.70;;;16.30;76.90;;;;;;4995908;28;96765;-51
2021/08/06 11:25:21;;;;;;;18.92;12.68;;;16.30;77.00;;;;;;4996227;28;95808;-56
2021/08/06 11:27:59;;;;;;;20.02;11.82;;;16.30;77.10;;;;;;4996507;28;94953;-54
2021/08/06 11:30:35;;;;;;;17.52;12.43;;;16.30;77.10;;;;;;4995574;28;95068;-56
2021/08/06 11:33:11;;;;;;;21.80;13.30;;;16.30;77.10;;;;;;4996323;28;96551;-56
2021/08/06 11:35:47;;;;;;;17.23;12.25;;;16.20;77.10;;;;;;4995746;28;95793;-55
2021/08/06 11:38:23;;;;;;;;;;;16.20;77.10;;;;;;4997050;28;94930;-56
2021/08/06 11:40:57;;;;;;;18.52;11.40;;;16.20;77.10;;;;;;4998240;28;95127;-55
2021/08/06 11:43:37;;;;;;;16.17;11.73;;;16.20;77.10;;;;;;4978969;28;96394;-51
2021/08/06 11:46:14;;;;;;;17.23;10.27;;;16.20;77.10;;;;;;4995924;28;95195;-53
2021/08/06 11:49:01;;;;;;;15.00;9.57;;;16.20;77.20;;;;;;5000569;28;95065;-55
2021/08/06 11:51:33;;;;;;;13.35;9.45;;;16.20;77.20;;;;;;5001623;28;95045;-52
2021/08/06 11:54:08;;;;;;;;;;;16.20;77.20;;;;;;5001187;28;96072;-51
2021/08/06 11:56:48;;;;;;;16.17;9.73;;;16.20;77.20;;;;;;5001813;28;95395;-52
2021/08/06 11:59:23;;;;;;;12.13;8.65;;;16.20;77.30;;;;;;5000429;28;94744;-50
2021/08/06 12:02:21;;;;;;;12.52;8.65;;;16.20;77.30;;;;;;4999889;28;95153;-52
2021/08/06 12:04:54;;;;;;;12.13;8.10;;;16.20;77.30;;;;;;4999777;28;95058;-50
2021/08/06 12:07:27;;;;;;;13.10;8.23;;;16.20;77.20;;;;;;4982596;28;95812;-50
2021/08/06 12:10:00;;;;;;;13.00;8.27;;;16.20;77.20;;;;;;4982940;28;94919;-49
2021/08/06 12:12:34;;;;;;;12.20;7.63;;;16.20;77.20;;;;;;4999963;28;95368;-50
2021/08/06 12:15:30;;;;;;;10.20;7.22;;;16.10;77.20;;;;;;4981286;28;96772;-49
2021/08/06 12:18:13;;;;;;;10.15;7.32;;;16.10;77.20;;;;;;4996524;28;102292;-49
2021/08/06 12:20:58;;;;;;;9.52;7.20;;;16.10;77.20;;;;;;4994626;28;95314;-49
2021/08/06 12:23:30;;;;;;;10.45;6.30;;;16.20;77.30;;;;;;5000023;28;95184;-49
2021/08/06 12:26:06;;;;;;;11.57;6.88;;;16.10;77.30;;;;;;4999503;28;96058;-50
2021/08/06 12:28:43;;;;;;;9.32;6.75;;;16.10;77.30;;;;;;4999361;28;95759;-49
2021/08/06 12:31:22;;;;;;;10.32;6.90;;;16.10;77.30;;;;;;4998505;28;94991;-51
2021/08/06 12:34:10;;;;;;;8.77;6.63;;;16.10;77.20;;;;;;4999573;28;95260;-48
2021/08/06 12:36:54;;;;;;;7.95;5.90;;;16.10;77.20;;;;;;4999205;28;96535;-50
2021/08/06 12:39:28;;;;;;;12.65;5.90;;;16.10;77.50;;;;;;4999257;28;95896;-48
2021/08/06 12:42:19;;;;;;;8.82;6.53;;;16.10;77.80;;;;;;4999358;28;95018;-51
2021/08/06 12:44:55;;;;;;;8.85;6.63;;;16.00;77.90;;;;;;5000135;28;95185;-47
2021/08/06 12:47:28;;;;;;;8.50;6.55;;;16.00;77.70;;;;;;5001208;28;96429;-56
2021/08/06 12:50:08;;;;;;;9.15;6.43;;;16.10;78.00;;;;;;5002129;28;95419;-63
2021/08/06 12:52:43;;;;;;;9.30;6.30;;;16.20;77.70;;;;;;5001798;28;94908;-58
2021/08/06 12:55:20;;;;;;;8.63;6.78;;;16.30;77.60;;;;;;5001855;28;95077;-53
2021/08/06 12:57:58;;;;;;;8.93;6.50;;;16.40;77.30;;;;;;5000150;28;96007;-63
2021/08/06 13:00:38;;;;;;;9.73;6.57;;;16.50;77.10;;;;;;4998237;28;95173;-56
2021/08/06 13:03:13;;;;;;;8.80;6.45;;;16.60;76.80;;;;;;4983182;28;94958;-52
2021/08/06 13:06:09;;;;;;;8.23;6.00;;;16.60;76.70;;;;;;5001488;28;95029;-56
2021/08/06 13:08:44;;;;;;;10.20;6.95;;;16.70;76.40;;;;;;4982630;28;96395;-49
2021/08/06 13:11:19;;;;;;;6.93;5.22;;;16.70;76.60;;;;;;4968146;28;95800;-45
2021/08/06 13:13:51;;;;;;;6.30;4.97;;;16.90;76.60;;;;;;5000446;28;94932;-46
2021/08/06 13:16:24;;;;;;;7.82;5.82;;;16.90;76.40;;;;;;4998396;28;95401;-48
2021/08/06 13:18:55;;;;;;;8.23;5.57;;;17.00;76.20;;;;;;4975009;28;97552;-51
2021/08/06 13:21:29;;;;;;;8.10;5.90;;;17.10;75.90;;;;;;4980079;28;95786;-58
2021/08/06 13:24:02;;;;;;;7.28;5.28;;;17.30;75.80;;;;;;5001193;28;94938;-60
2021/08/06 13:26:33;;;;;;;8.90;5.15;;;17.40;75.50;;;;;;5001210;28;95243;-62
2021/08/06 13:29:05;;;;;;;5.50;4.60;;;17.60;74.90;;;;;;4983343;28;96256;-62
2021/08/06 13:31:40;;;;;;;7.18;5.07;;;17.70;74.60;;;;;;4998868;28;95760;-57
2021/08/06 13:34:13;;;;;;;6.93;5.05;;;17.80;74.50;;;;;;4999747;28;94898;-56